JAL4125 RJOO-RJFK
Flight info
| Callsign | JAL4125 |
|---|---|
| Flight time | 1h 1m |
| Altitude | 36000 |
| Route | TIGER MAIKO AWAJI Y232 KRE Y756 VIRUD Y757 SPICA |
| Aircraft | B738/M-SDE2E3FGHIRWXY/LB1 |
Departure
| Time | 2026-04-27 12:30 |
|---|---|
| Airport | Osaka Itami International Airport (RJOO) |
Arrival
| Time | 2026-04-27 13:32 |
|---|---|
| Airport | Kagoshima Airport (RJFK) |
| Time | Latitude | Longitude | Altitude | Speed | Heading |
|---|---|---|---|---|---|
| 2026-04-27 11:51 | 34.79180 | 135.43856 | 49 ft | 0 kts | 31° |
| 2026-04-27 12:17 | 34.79167 | 135.43846 | 48 ft | 4 kts | 31° |
| 2026-04-27 12:17 | 34.79144 | 135.43829 | 47 ft | 4 kts | 31° |
| 2026-04-27 12:17 | 34.79121 | 135.43812 | 49 ft | 4 kts | 31° |
| 2026-04-27 12:18 | 34.79098 | 135.43795 | 47 ft | 4 kts | 31° |
| 2026-04-27 12:18 | 34.79078 | 135.43781 | 46 ft | 4 kts | 41° |
| 2026-04-27 12:18 | 34.79065 | 135.43757 | 45 ft | 4 kts | 92° |
| 2026-04-27 12:18 | 34.79073 | 135.43728 | 48 ft | 4 kts | 128° |
| 2026-04-27 12:19 | 34.79091 | 135.43705 | 47 ft | 4 kts | 135° |
| 2026-04-27 12:19 | 34.79096 | 135.43699 | 45 ft | 0 kts | 135° |
| 2026-04-27 12:22 | 34.79079 | 135.43719 | 46 ft | 7 kts | 139° |
| 2026-04-27 12:22 | 34.79028 | 135.43729 | 49 ft | 8 kts | 191° |
| 2026-04-27 12:23 | 34.78975 | 135.43728 | 49 ft | 8 kts | 161° |
| 2026-04-27 12:23 | 34.78928 | 135.43776 | 49 ft | 11 kts | 135° |
| 2026-04-27 12:23 | 34.78860 | 135.43857 | 48 ft | 16 kts | 135° |
| 2026-04-27 12:23 | 34.78769 | 135.43968 | 49 ft | 20 kts | 135° |
| 2026-04-27 12:24 | 34.78674 | 135.44084 | 49 ft | 19 kts | 135° |
| 2026-04-27 12:24 | 34.78604 | 135.44169 | 48 ft | 12 kts | 135° |
| 2026-04-27 12:24 | 34.78547 | 135.44237 | 48 ft | 12 kts | 135° |
| 2026-04-27 12:24 | 34.78488 | 135.44308 | 48 ft | 12 kts | 137° |
| 2026-04-27 12:25 | 34.78413 | 135.44335 | 48 ft | 12 kts | 181° |
| 2026-04-27 12:25 | 34.78333 | 135.44334 | 50 ft | 12 kts | 180° |
| 2026-04-27 12:25 | 34.78252 | 135.44334 | 48 ft | 11 kts | 180° |
| 2026-04-27 12:25 | 34.78176 | 135.44343 | 49 ft | 11 kts | 155° |
| 2026-04-27 12:26 | 34.78119 | 135.44403 | 47 ft | 11 kts | 135° |
| 2026-04-27 12:26 | 34.78067 | 135.44467 | 49 ft | 10 kts | 135° |
| 2026-04-27 12:26 | 34.78016 | 135.44528 | 47 ft | 10 kts | 135° |
| 2026-04-27 12:26 | 34.77964 | 135.44592 | 49 ft | 11 kts | 135° |
| 2026-04-27 12:27 | 34.77912 | 135.44654 | 47 ft | 10 kts | 135° |
| 2026-04-27 12:27 | 34.77863 | 135.44714 | 49 ft | 10 kts | 135° |
| 2026-04-27 12:27 | 34.77812 | 135.44775 | 48 ft | 11 kts | 135° |
| 2026-04-27 12:27 | 34.77756 | 135.44843 | 48 ft | 11 kts | 135° |
| 2026-04-27 12:28 | 34.77698 | 135.44904 | 48 ft | 11 kts | 147° |
| 2026-04-27 12:28 | 34.77632 | 135.44947 | 49 ft | 11 kts | 153° |
| 2026-04-27 12:28 | 34.77566 | 135.44984 | 48 ft | 10 kts | 156° |
| 2026-04-27 12:28 | 34.77491 | 135.45019 | 49 ft | 12 kts | 173° |
| 2026-04-27 12:29 | 34.77425 | 135.44967 | 51 ft | 12 kts | 256° |
| 2026-04-27 12:29 | 34.77468 | 135.44884 | 50 ft | 14 kts | 315° |
| 2026-04-27 12:29 | 34.77660 | 135.44653 | 49 ft | 75 kts | 315° |
| 2026-04-27 12:29 | 34.78202 | 135.43995 | 50 ft | 143 kts | 315° |
| 2026-04-27 12:30 | 34.78970 | 135.43064 | 517 ft | 156 kts | 315° |
| 2026-04-27 12:30 | 34.79754 | 135.42126 | 1241 ft | 163 kts | 315° |
| 2026-04-27 12:30 | 34.80587 | 135.41090 | 1820 ft | 179 kts | 310° |
| 2026-04-27 12:30 | 34.81011 | 135.39625 | 2347 ft | 199 kts | 261° |
| 2026-04-27 12:31 | 34.80262 | 135.38295 | 3104 ft | 199 kts | 210° |
| 2026-04-27 12:31 | 34.78864 | 135.37952 | 3584 ft | 218 kts | 180° |
| 2026-04-27 12:31 | 34.77299 | 135.38195 | 4014 ft | 232 kts | 173° |
| 2026-04-27 12:31 | 34.75664 | 135.38560 | 4483 ft | 248 kts | 171° |
| 2026-04-27 12:32 | 34.73930 | 135.39005 | 4973 ft | 264 kts | 173° |
| 2026-04-27 12:32 | 34.72003 | 135.39104 | 5192 ft | 291 kts | 190° |
| 2026-04-27 12:32 | 34.70033 | 135.38470 | 5897 ft | 296 kts | 206° |
| 2026-04-27 12:32 | 34.68185 | 135.37224 | 6420 ft | 309 kts | 221° |
| 2026-04-27 12:33 | 34.66757 | 135.35384 | 7669 ft | 286 kts | 239° |
| 2026-04-27 12:33 | 34.66017 | 135.33306 | 9078 ft | 267 kts | 261° |
| 2026-04-27 12:33 | 34.65974 | 135.31034 | 9817 ft | 274 kts | 278° |
| 2026-04-27 12:33 | 34.66309 | 135.28717 | 10373 ft | 287 kts | 281° |
| 2026-04-27 12:34 | 34.66711 | 135.26229 | 10563 ft | 312 kts | 281° |
| 2026-04-27 12:34 | 34.67132 | 135.23545 | 10851 ft | 332 kts | 280° |
| 2026-04-27 12:34 | 34.67552 | 135.20766 | 11524 ft | 336 kts | 279° |
| 2026-04-27 12:34 | 34.67651 | 135.17932 | 12372 ft | 336 kts | 265° |
| 2026-04-27 12:35 | 34.67225 | 135.15145 | 13271 ft | 336 kts | 255° |
| 2026-04-27 12:35 | 34.66335 | 135.12514 | 14066 ft | 339 kts | 245° |
| 2026-04-27 12:35 | 34.65268 | 135.09941 | 14738 ft | 342 kts | 245° |
| 2026-04-27 12:35 | 34.64201 | 135.07356 | 15481 ft | 343 kts | 246° |
| 2026-04-27 12:36 | 34.63145 | 135.04758 | 16216 ft | 344 kts | 246° |
| 2026-04-27 12:36 | 34.62032 | 135.02200 | 16874 ft | 349 kts | 240° |
| 2026-04-27 12:36 | 34.60541 | 134.99847 | 17515 ft | 355 kts | 232° |
| 2026-04-27 12:36 | 34.58757 | 134.97739 | 18239 ft | 361 kts | 224° |
| 2026-04-27 12:37 | 34.56712 | 134.95895 | 18773 ft | 368 kts | 221° |
| 2026-04-27 12:37 | 34.54594 | 134.94130 | 19352 ft | 371 kts | 220° |
| 2026-04-27 12:37 | 34.52448 | 134.92379 | 19983 ft | 371 kts | 220° |
| 2026-04-27 12:37 | 34.50298 | 134.90625 | 20589 ft | 373 kts | 221° |
| 2026-04-27 12:38 | 34.48136 | 134.88848 | 21155 ft | 375 kts | 221° |
| 2026-04-27 12:38 | 34.45972 | 134.87070 | 21683 ft | 377 kts | 222° |
| 2026-04-27 12:38 | 34.43826 | 134.85289 | 22191 ft | 380 kts | 222° |
| 2026-04-27 12:38 | 34.41641 | 134.83477 | 22704 ft | 381 kts | 223° |
| 2026-04-27 12:39 | 34.39453 | 134.81655 | 23208 ft | 383 kts | 223° |
| 2026-04-27 12:39 | 34.37255 | 134.79817 | 23687 ft | 385 kts | 223° |
| 2026-04-27 12:39 | 34.35046 | 134.77976 | 24100 ft | 386 kts | 223° |
| 2026-04-27 12:39 | 34.32828 | 134.76134 | 24535 ft | 387 kts | 223° |
| 2026-04-27 12:40 | 34.30594 | 134.74280 | 24940 ft | 389 kts | 223° |
| 2026-04-27 12:40 | 34.28367 | 134.72414 | 25313 ft | 388 kts | 226° |
| 2026-04-27 12:40 | 34.26325 | 134.70321 | 25691 ft | 382 kts | 233° |
| 2026-04-27 12:40 | 34.24587 | 134.67924 | 26040 ft | 378 kts | 238° |
| 2026-04-27 12:41 | 34.22934 | 134.65500 | 26424 ft | 379 kts | 238° |
| 2026-04-27 12:41 | 34.21246 | 134.63052 | 26797 ft | 380 kts | 238° |
| 2026-04-27 12:41 | 34.19595 | 134.60563 | 27134 ft | 382 kts | 237° |
| 2026-04-27 12:41 | 34.17833 | 134.58126 | 27454 ft | 385 kts | 237° |
| 2026-04-27 12:42 | 34.16096 | 134.55669 | 27726 ft | 386 kts | 237° |
| 2026-04-27 12:42 | 34.14355 | 134.53179 | 28008 ft | 389 kts | 237° |
| 2026-04-27 12:42 | 34.12610 | 134.50676 | 28347 ft | 390 kts | 237° |
| 2026-04-27 12:42 | 34.10857 | 134.48165 | 28699 ft | 391 kts | 237° |
| 2026-04-27 12:43 | 34.09121 | 134.45681 | 29084 ft | 391 kts | 237° |
| 2026-04-27 12:43 | 34.07373 | 134.43185 | 29585 ft | 388 kts | 238° |
| 2026-04-27 12:43 | 34.05639 | 134.40715 | 30136 ft | 384 kts | 238° |
| 2026-04-27 12:43 | 34.03915 | 134.38254 | 30442 ft | 385 kts | 238° |
| 2026-04-27 12:44 | 34.02177 | 134.35774 | 30673 ft | 387 kts | 238° |
| 2026-04-27 12:44 | 34.00508 | 134.33237 | 30931 ft | 382 kts | 241° |
| 2026-04-27 12:44 | 33.98783 | 134.30803 | 31597 ft | 380 kts | 236° |
| 2026-04-27 12:44 | 33.97058 | 134.28473 | 32078 ft | 375 kts | 238° |
| 2026-04-27 12:45 | 33.95371 | 134.26072 | 32355 ft | 376 kts | 238° |
| 2026-04-27 12:45 | 33.93677 | 134.23680 | 32677 ft | 376 kts | 237° |
| 2026-04-27 12:45 | 33.91957 | 134.21318 | 33234 ft | 375 kts | 235° |
| 2026-04-27 12:45 | 33.90204 | 134.19006 | 33627 ft | 371 kts | 237° |
| 2026-04-27 12:46 | 33.88431 | 134.16727 | 33984 ft | 375 kts | 236° |
| 2026-04-27 12:46 | 33.86838 | 134.14310 | 34270 ft | 356 kts | 253° |
| 2026-04-27 12:46 | 33.85688 | 134.11672 | 34517 ft | 360 kts | 243° |
| 2026-04-27 12:47 | 33.82783 | 134.06730 | 34643 ft | 362 kts | 239° |
| 2026-04-27 12:47 | 33.80994 | 134.04482 | 34516 ft | 380 kts | 232° |
| 2026-04-27 12:47 | 33.79094 | 134.02360 | 34459 ft | 372 kts | 233° |
| 2026-04-27 12:47 | 33.77286 | 134.00166 | 33898 ft | 367 kts | 237° |
| 2026-04-27 12:48 | 33.75554 | 133.97899 | 33048 ft | 369 kts | 237° |
| 2026-04-27 12:48 | 33.73866 | 133.95546 | 32142 ft | 373 kts | 239° |
| 2026-04-27 12:48 | 33.72199 | 133.93129 | 31324 ft | 378 kts | 237° |
| 2026-04-27 12:48 | 33.70431 | 133.90736 | 30307 ft | 389 kts | 236° |
| 2026-04-27 12:49 | 33.68597 | 133.88313 | 29407 ft | 392 kts | 237° |
| 2026-04-27 12:49 | 33.66815 | 133.85816 | 28497 ft | 394 kts | 237° |
| 2026-04-27 12:49 | 33.64980 | 133.83389 | 27775 ft | 400 kts | 233° |
| 2026-04-27 12:49 | 33.63171 | 133.80875 | 26853 ft | 395 kts | 240° |
| 2026-04-27 12:50 | 33.61525 | 133.78235 | 26351 ft | 392 kts | 238° |
| 2026-04-27 12:50 | 33.59734 | 133.75737 | 26254 ft | 400 kts | 232° |
| 2026-04-27 12:50 | 33.57792 | 133.73308 | 26069 ft | 404 kts | 238° |
| 2026-04-27 12:50 | 33.56084 | 133.70617 | 26017 ft | 406 kts | 239° |
| 2026-04-27 12:51 | 33.54367 | 133.67930 | 25974 ft | 404 kts | 239° |
| 2026-04-27 12:51 | 33.52837 | 133.65134 | 25964 ft | 398 kts | 246° |
| 2026-04-27 12:51 | 33.51506 | 133.62231 | 25982 ft | 397 kts | 246° |
| 2026-04-27 12:51 | 33.50185 | 133.59323 | 25981 ft | 397 kts | 246° |
| 2026-04-27 12:52 | 33.48878 | 133.56453 | 25941 ft | 397 kts | 246° |
| 2026-04-27 12:52 | 33.47555 | 133.53562 | 25958 ft | 396 kts | 246° |
| 2026-04-27 12:52 | 33.46224 | 133.50667 | 25959 ft | 396 kts | 246° |
| 2026-04-27 12:52 | 33.44892 | 133.47778 | 25979 ft | 396 kts | 246° |
| 2026-04-27 12:53 | 33.42172 | 133.41995 | 25965 ft | 401 kts | 242° |
| 2026-04-27 12:53 | 33.40514 | 133.39286 | 25952 ft | 405 kts | 239° |
| 2026-04-27 12:53 | 33.39210 | 133.36439 | 26008 ft | 394 kts | 246° |
| 2026-04-27 12:54 | 33.37303 | 133.33994 | 26011 ft | 416 kts | 223° |
| 2026-04-27 12:54 | 33.34879 | 133.32024 | 25982 ft | 423 kts | 223° |
| 2026-04-27 12:54 | 33.32533 | 133.29913 | 25968 ft | 420 kts | 226° |
| 2026-04-27 12:54 | 33.30323 | 133.27661 | 25965 ft | 416 kts | 229° |
| 2026-04-27 12:55 | 33.28189 | 133.25323 | 25972 ft | 413 kts | 230° |
| 2026-04-27 12:55 | 33.26107 | 133.22970 | 25979 ft | 413 kts | 230° |
| 2026-04-27 12:55 | 33.24023 | 133.20591 | 25982 ft | 411 kts | 231° |
| 2026-04-27 12:55 | 33.21953 | 133.18228 | 25979 ft | 412 kts | 230° |
| 2026-04-27 12:56 | 33.19884 | 133.15918 | 25980 ft | 412 kts | 230° |
| 2026-04-27 12:56 | 33.17790 | 133.13577 | 25986 ft | 412 kts | 230° |
| 2026-04-27 12:56 | 33.15693 | 133.11236 | 25975 ft | 412 kts | 230° |
| 2026-04-27 12:56 | 33.13594 | 133.08888 | 25987 ft | 412 kts | 230° |
| 2026-04-27 12:57 | 33.11500 | 133.06542 | 25920 ft | 413 kts | 230° |
| 2026-04-27 12:57 | 33.09418 | 133.04193 | 25962 ft | 412 kts | 230° |
| 2026-04-27 12:57 | 33.07325 | 133.01838 | 26013 ft | 414 kts | 229° |
| 2026-04-27 12:57 | 33.05213 | 132.99475 | 25998 ft | 418 kts | 229° |
| 2026-04-27 12:58 | 33.03090 | 132.97105 | 25993 ft | 418 kts | 229° |
| 2026-04-27 12:58 | 33.00962 | 132.94750 | 25980 ft | 418 kts | 229° |
| 2026-04-27 12:58 | 32.98864 | 132.92412 | 25948 ft | 418 kts | 229° |
| 2026-04-27 12:58 | 32.96748 | 132.90048 | 25975 ft | 417 kts | 229° |
| 2026-04-27 12:59 | 32.94611 | 132.87658 | 25955 ft | 416 kts | 230° |
| 2026-04-27 12:59 | 32.92559 | 132.85309 | 25976 ft | 412 kts | 229° |
| 2026-04-27 12:59 | 32.90458 | 132.82972 | 25983 ft | 415 kts | 229° |
| 2026-04-27 12:59 | 32.88327 | 132.80623 | 25979 ft | 418 kts | 229° |
| 2026-04-27 13:00 | 32.86203 | 132.78252 | 26000 ft | 418 kts | 229° |
| 2026-04-27 13:00 | 32.84037 | 132.75914 | 25961 ft | 419 kts | 228° |
| 2026-04-27 13:00 | 32.81915 | 132.73574 | 25994 ft | 415 kts | 229° |
| 2026-04-27 13:00 | 32.79812 | 132.71217 | 25983 ft | 415 kts | 229° |
| 2026-04-27 13:01 | 32.77735 | 132.68896 | 25977 ft | 415 kts | 229° |
| 2026-04-27 13:01 | 32.75623 | 132.66553 | 25986 ft | 414 kts | 229° |
| 2026-04-27 13:01 | 32.73511 | 132.64220 | 25983 ft | 414 kts | 229° |
| 2026-04-27 13:01 | 32.71394 | 132.61889 | 25981 ft | 414 kts | 229° |
| 2026-04-27 13:02 | 32.69275 | 132.59555 | 25990 ft | 415 kts | 229° |
| 2026-04-27 13:02 | 32.67157 | 132.57223 | 25987 ft | 415 kts | 229° |
| 2026-04-27 13:02 | 32.65063 | 132.54918 | 25985 ft | 416 kts | 229° |
| 2026-04-27 13:02 | 32.62859 | 132.52678 | 25971 ft | 423 kts | 220° |
| 2026-04-27 13:03 | 32.60149 | 132.51155 | 25985 ft | 441 kts | 204° |
| 2026-04-27 13:03 | 32.57057 | 132.50623 | 25960 ft | 460 kts | 187° |
| 2026-04-27 13:03 | 32.53819 | 132.51081 | 25993 ft | 473 kts | 176° |
| 2026-04-27 13:03 | 32.50591 | 132.51974 | 25983 ft | 477 kts | 174° |
| 2026-04-27 13:04 | 32.47379 | 132.52973 | 25980 ft | 479 kts | 173° |
| 2026-04-27 13:04 | 32.44153 | 132.54010 | 25980 ft | 480 kts | 173° |
| 2026-04-27 13:04 | 32.40933 | 132.55054 | 25980 ft | 480 kts | 172° |
| 2026-04-27 13:04 | 32.37751 | 132.56090 | 25985 ft | 480 kts | 172° |
| 2026-04-27 13:05 | 32.34529 | 132.57142 | 25964 ft | 480 kts | 172° |
| 2026-04-27 13:05 | 32.31301 | 132.58192 | 25979 ft | 480 kts | 172° |
| 2026-04-27 13:05 | 32.28071 | 132.59238 | 25986 ft | 480 kts | 172° |
| 2026-04-27 13:05 | 32.24849 | 132.60278 | 25992 ft | 480 kts | 172° |
| 2026-04-27 13:06 | 32.21626 | 132.61316 | 25993 ft | 480 kts | 172° |
| 2026-04-27 13:06 | 32.18391 | 132.62356 | 25987 ft | 480 kts | 172° |
| 2026-04-27 13:06 | 32.15166 | 132.63350 | 25988 ft | 476 kts | 176° |
| 2026-04-27 13:06 | 32.11981 | 132.63634 | 25883 ft | 451 kts | 192° |
| 2026-04-27 13:07 | 32.08995 | 132.62951 | 25278 ft | 428 kts | 207° |
| 2026-04-27 13:07 | 32.06423 | 132.61334 | 24527 ft | 413 kts | 223° |
| 2026-04-27 13:07 | 32.04478 | 132.58929 | 23793 ft | 402 kts | 240° |
| 2026-04-27 13:07 | 32.03332 | 132.55976 | 23046 ft | 394 kts | 257° |
| 2026-04-27 13:08 | 32.02997 | 132.52797 | 22433 ft | 388 kts | 267° |
| 2026-04-27 13:08 | 32.02959 | 132.49678 | 22199 ft | 374 kts | 270° |
| 2026-04-27 13:08 | 32.03162 | 132.46664 | 21925 ft | 364 kts | 278° |
| 2026-04-27 13:08 | 32.03672 | 132.43793 | 21668 ft | 353 kts | 280° |
| 2026-04-27 13:09 | 32.04212 | 132.41007 | 21403 ft | 344 kts | 281° |
| 2026-04-27 13:09 | 32.04744 | 132.38298 | 21164 ft | 335 kts | 281° |
| 2026-04-27 13:09 | 32.05261 | 132.35646 | 20908 ft | 327 kts | 281° |
| 2026-04-27 13:09 | 32.05761 | 132.33066 | 20659 ft | 319 kts | 281° |
| 2026-04-27 13:10 | 32.06245 | 132.30544 | 20406 ft | 312 kts | 280° |
| 2026-04-27 13:10 | 32.06712 | 132.28100 | 20168 ft | 306 kts | 280° |
| 2026-04-27 13:10 | 32.07171 | 132.25689 | 20022 ft | 296 kts | 281° |
| 2026-04-27 13:10 | 32.07613 | 132.23361 | 19999 ft | 286 kts | 280° |
| 2026-04-27 13:11 | 32.08044 | 132.21087 | 19996 ft | 284 kts | 280° |
| 2026-04-27 13:11 | 32.08475 | 132.18797 | 20013 ft | 288 kts | 280° |
| 2026-04-27 13:11 | 32.08912 | 132.16476 | 20008 ft | 292 kts | 280° |
| 2026-04-27 13:11 | 32.09204 | 132.14930 | 20002 ft | 291 kts | 280° |
| 2026-04-27 13:12 | 32.09642 | 132.12603 | 19988 ft | 290 kts | 280° |
| 2026-04-27 13:12 | 32.10079 | 132.10286 | 19991 ft | 289 kts | 280° |
| 2026-04-27 13:12 | 32.10513 | 132.07980 | 19992 ft | 288 kts | 280° |
| 2026-04-27 13:12 | 32.10946 | 132.05673 | 19998 ft | 287 kts | 280° |
| 2026-04-27 13:13 | 32.11378 | 132.03372 | 19999 ft | 287 kts | 280° |
| 2026-04-27 13:13 | 32.11809 | 132.01070 | 19998 ft | 287 kts | 280° |
| 2026-04-27 13:13 | 32.12242 | 131.98758 | 20000 ft | 288 kts | 280° |
| 2026-04-27 13:13 | 32.12673 | 131.96453 | 19998 ft | 288 kts | 280° |
| 2026-04-27 13:14 | 32.13106 | 131.94138 | 19994 ft | 289 kts | 280° |
| 2026-04-27 13:14 | 32.13538 | 131.91826 | 19997 ft | 289 kts | 280° |
| 2026-04-27 13:14 | 32.13966 | 131.89533 | 19993 ft | 290 kts | 280° |
| 2026-04-27 13:14 | 32.14400 | 131.87204 | 19991 ft | 290 kts | 280° |
| 2026-04-27 13:15 | 32.14735 | 131.84864 | 19979 ft | 289 kts | 269° |
| 2026-04-27 13:15 | 32.14504 | 131.82515 | 20002 ft | 289 kts | 258° |
| 2026-04-27 13:15 | 32.13846 | 131.80267 | 19983 ft | 288 kts | 246° |
| 2026-04-27 13:15 | 32.12849 | 131.78260 | 19991 ft | 278 kts | 242° |
| 2026-04-27 13:16 | 32.11843 | 131.76375 | 19984 ft | 265 kts | 242° |
| 2026-04-27 13:16 | 32.10870 | 131.74570 | 19910 ft | 256 kts | 242° |
| 2026-04-27 13:16 | 32.09940 | 131.72834 | 19685 ft | 252 kts | 243° |
| 2026-04-27 13:16 | 32.09005 | 131.71077 | 19264 ft | 255 kts | 243° |
| 2026-04-27 13:17 | 32.08026 | 131.69220 | 18324 ft | 279 kts | 243° |
| 2026-04-27 13:17 | 32.06976 | 131.67226 | 17637 ft | 290 kts | 242° |
| 2026-04-27 13:17 | 32.05905 | 131.65201 | 17262 ft | 289 kts | 242° |
| 2026-04-27 13:17 | 32.04845 | 131.63198 | 16939 ft | 286 kts | 242° |
| 2026-04-27 13:18 | 32.03792 | 131.61206 | 16572 ft | 286 kts | 242° |
| 2026-04-27 13:18 | 32.02750 | 131.59234 | 16152 ft | 287 kts | 242° |
| 2026-04-27 13:18 | 32.01696 | 131.57237 | 15814 ft | 286 kts | 242° |
| 2026-04-27 13:18 | 32.00644 | 131.55246 | 15483 ft | 285 kts | 241° |
| 2026-04-27 13:19 | 31.99597 | 131.53264 | 15147 ft | 284 kts | 241° |
| 2026-04-27 13:19 | 31.98556 | 131.51292 | 14829 ft | 283 kts | 241° |
| 2026-04-27 13:19 | 31.97516 | 131.49324 | 14506 ft | 282 kts | 241° |
| 2026-04-27 13:19 | 31.96501 | 131.47405 | 14180 ft | 281 kts | 241° |
| 2026-04-27 13:20 | 31.95468 | 131.45455 | 13872 ft | 280 kts | 241° |
| 2026-04-27 13:20 | 31.94450 | 131.43534 | 13526 ft | 280 kts | 241° |
| 2026-04-27 13:20 | 31.93418 | 131.41597 | 13191 ft | 279 kts | 240° |
| 2026-04-27 13:20 | 31.92390 | 131.39672 | 12864 ft | 278 kts | 240° |
| 2026-04-27 13:21 | 31.91362 | 131.37745 | 12540 ft | 278 kts | 240° |
| 2026-04-27 13:21 | 31.90332 | 131.35817 | 12204 ft | 279 kts | 240° |
| 2026-04-27 13:21 | 31.89301 | 131.33887 | 11893 ft | 279 kts | 240° |
| 2026-04-27 13:21 | 31.88269 | 131.31956 | 11570 ft | 278 kts | 240° |
| 2026-04-27 13:22 | 31.87242 | 131.30035 | 11248 ft | 277 kts | 240° |
| 2026-04-27 13:22 | 31.86238 | 131.28110 | 10935 ft | 276 kts | 240° |
| 2026-04-27 13:22 | 31.85218 | 131.26204 | 10626 ft | 275 kts | 240° |
| 2026-04-27 13:22 | 31.84193 | 131.24305 | 10341 ft | 274 kts | 240° |
| 2026-04-27 13:23 | 31.83172 | 131.22409 | 10031 ft | 273 kts | 240° |
| 2026-04-27 13:23 | 31.82167 | 131.20542 | 9710 ft | 272 kts | 240° |
| 2026-04-27 13:23 | 31.81154 | 131.18658 | 9389 ft | 272 kts | 239° |
| 2026-04-27 13:23 | 31.80145 | 131.16778 | 9059 ft | 271 kts | 239° |
| 2026-04-27 13:24 | 31.79137 | 131.14901 | 8750 ft | 271 kts | 239° |
| 2026-04-27 13:24 | 31.78133 | 131.13031 | 8436 ft | 270 kts | 239° |
| 2026-04-27 13:24 | 31.77133 | 131.11168 | 8135 ft | 269 kts | 239° |
| 2026-04-27 13:24 | 31.76133 | 131.09309 | 7837 ft | 268 kts | 239° |
| 2026-04-27 13:25 | 31.75138 | 131.07458 | 7535 ft | 268 kts | 239° |
| 2026-04-27 13:25 | 31.74141 | 131.05601 | 7236 ft | 267 kts | 239° |
| 2026-04-27 13:25 | 31.73156 | 131.03766 | 6932 ft | 267 kts | 239° |
| 2026-04-27 13:25 | 31.72166 | 131.01923 | 6635 ft | 267 kts | 239° |
| 2026-04-27 13:26 | 31.71174 | 131.00077 | 6330 ft | 267 kts | 239° |
| 2026-04-27 13:26 | 31.70185 | 130.98236 | 6019 ft | 266 kts | 238° |
| 2026-04-27 13:26 | 31.69198 | 130.96399 | 5701 ft | 266 kts | 238° |
| 2026-04-27 13:26 | 31.68211 | 130.94566 | 5400 ft | 265 kts | 238° |
| 2026-04-27 13:27 | 31.67224 | 130.92740 | 5101 ft | 264 kts | 239° |
| 2026-04-27 13:27 | 31.66573 | 130.90734 | 4801 ft | 264 kts | 257° |
| 2026-04-27 13:27 | 31.66212 | 130.88628 | 4501 ft | 263 kts | 258° |
| 2026-04-27 13:27 | 31.65994 | 130.86530 | 4153 ft | 256 kts | 276° |
| 2026-04-27 13:28 | 31.66439 | 130.84548 | 3900 ft | 247 kts | 289° |
| 2026-04-27 13:28 | 31.67015 | 130.82702 | 3624 ft | 240 kts | 290° |
| 2026-04-27 13:28 | 31.67657 | 130.80919 | 3333 ft | 234 kts | 304° |
| 2026-04-27 13:28 | 31.68837 | 130.79670 | 3088 ft | 226 kts | 327° |
| 2026-04-27 13:29 | 31.70156 | 130.78757 | 2840 ft | 212 kts | 330° |
| 2026-04-27 13:29 | 31.71385 | 130.77942 | 2614 ft | 194 kts | 330° |
| 2026-04-27 13:29 | 31.72521 | 130.77190 | 2357 ft | 180 kts | 330° |
| 2026-04-27 13:29 | 31.73574 | 130.76486 | 2098 ft | 169 kts | 329° |
| 2026-04-27 13:30 | 31.74559 | 130.75831 | 1963 ft | 151 kts | 329° |
| 2026-04-27 13:30 | 31.75451 | 130.75224 | 1747 ft | 146 kts | 329° |
| 2026-04-27 13:30 | 31.76325 | 130.74633 | 1546 ft | 144 kts | 330° |
| 2026-04-27 13:30 | 31.77177 | 130.74059 | 1357 ft | 142 kts | 329° |
| 2026-04-27 13:31 | 31.78046 | 130.73478 | 1161 ft | 146 kts | 329° |
| 2026-04-27 13:31 | 31.78940 | 130.72883 | 989 ft | 150 kts | 329° |
| 2026-04-27 13:31 | 31.79803 | 130.72294 | 912 ft | 124 kts | 331° |
| 2026-04-27 13:31 | 31.80367 | 130.71919 | 916 ft | 61 kts | 330° |
| 2026-04-27 13:32 | 31.80637 | 130.71737 | 914 ft | 33 kts | 330° |
| 2026-04-27 13:32 | 31.80769 | 130.71624 | 911 ft | 23 kts | 315° |
| 2026-04-27 13:32 | 31.80845 | 130.71508 | 914 ft | 13 kts | 295° |
| 2026-04-27 13:32 | 31.80836 | 130.71415 | 914 ft | 13 kts | 216° |
| 2026-04-27 13:33 | 31.80748 | 130.71434 | 910 ft | 14 kts | 150° |
| 2026-04-27 13:33 | 31.80661 | 130.71493 | 908 ft | 14 kts | 150° |
| 2026-04-27 13:33 | 31.80577 | 130.71550 | 906 ft | 14 kts | 150° |
| 2026-04-27 13:33 | 31.80493 | 130.71605 | 908 ft | 15 kts | 150° |
| 2026-04-27 13:34 | 31.80402 | 130.71665 | 907 ft | 15 kts | 150° |
| 2026-04-27 13:34 | 31.80315 | 130.71724 | 905 ft | 14 kts | 150° |
| 2026-04-27 13:34 | 31.80232 | 130.71780 | 908 ft | 13 kts | 149° |
| 2026-04-27 13:34 | 31.80172 | 130.71815 | 904 ft | 8 kts | 178° |
| 2026-04-27 13:35 | 31.80126 | 130.71771 | 901 ft | 10 kts | 239° |
| 2026-04-27 13:35 | 31.80098 | 130.71715 | 903 ft | 0 kts | 240° |
| 2026-04-27 13:35 | 31.80097 | 130.71713 | 902 ft | 0 kts | 240° |